sensor_id;sensor_type;location;lat;lon;timestamp;P1;durP1;ratioP1;P2;durP2;ratioP2
12141;SDS011;6134;59.284;18.022;2023-08-21T00:00:33;17.30;;;11.90;;
12141;SDS011;6134;59.284;18.022;2023-08-21T00:03:02;16.92;;;11.80;;
12141;SDS011;6134;59.284;18.022;2023-08-21T00:05:30;15.50;;;11.63;;
12141;SDS011;6134;59.284;18.022;2023-08-21T00:08:01;15.23;;;11.60;;
12141;SDS011;6134;59.284;18.022;2023-08-21T00:10:29;14.13;;;11.75;;
12141;SDS011;6134;59.284;18.022;2023-08-21T00:12:59;18.90;;;12.02;;
12141;SDS011;6134;59.284;18.022;2023-08-21T00:15:28;16.00;;;12.20;;
12141;SDS011;6134;59.284;18.022;2023-08-21T00:17:57;16.17;;;11.95;;
12141;SDS011;6134;59.284;18.022;2023-08-21T00:20:27;16.95;;;11.73;;
12141;SDS011;6134;59.284;18.022;2023-08-21T00:22:56;15.18;;;11.77;;
12141;SDS011;6134;59.284;18.022;2023-08-21T00:25:26;17.42;;;12.02;;
12141;SDS011;6134;59.284;18.022;2023-08-21T00:27:54;15.93;;;11.50;;
12141;SDS011;6134;59.284;18.022;2023-08-21T00:30:23;14.10;;;11.48;;
12141;SDS011;6134;59.284;18.022;2023-08-21T00:32:52;15.70;;;11.57;;
12141;SDS011;6134;59.284;18.022;2023-08-21T00:35:21;16.73;;;11.50;;
12141;SDS011;6134;59.284;18.022;2023-08-21T00:37:50;17.85;;;12.82;;
12141;SDS011;6134;59.284;18.022;2023-08-21T00:40:18;15.40;;;11.80;;
12141;SDS011;6134;59.284;18.022;2023-08-21T00:42:50;16.33;;;12.55;;
12141;SDS011;6134;59.284;18.022;2023-08-21T00:45:19;16.40;;;12.45;;
12141;SDS011;6134;59.284;18.022;2023-08-21T00:47:49;16.35;;;12.70;;
12141;SDS011;6134;59.284;18.022;2023-08-21T00:50:18;16.85;;;12.30;;
12141;SDS011;6134;59.284;18.022;2023-08-21T00:52:48;18.13;;;12.65;;
12141;SDS011;6134;59.284;18.022;2023-08-21T00:55:18;17.88;;;12.55;;
12141;SDS011;6134;59.284;18.022;2023-08-21T00:57:47;17.35;;;11.98;;
12141;SDS011;6134;59.284;18.022;2023-08-21T01:00:17;16.60;;;12.68;;
12141;SDS011;6134;59.284;18.022;2023-08-21T01:02:46;15.98;;;12.07;;
12141;SDS011;6134;59.284;18.022;2023-08-21T01:05:17;16.38;;;12.50;;
12141;SDS011;6134;59.284;18.022;2023-08-21T01:07:50;13.30;;;11.13;;
12141;SDS011;6134;59.284;18.022;2023-08-21T01:10:22;15.98;;;11.57;;
12141;SDS011;6134;59.284;18.022;2023-08-21T01:12:53;15.20;;;11.55;;
12141;SDS011;6134;59.284;18.022;2023-08-21T01:15:24;14.48;;;11.55;;
12141;SDS011;6134;59.284;18.022;2023-08-21T01:17:53;14.95;;;11.90;;
12141;SDS011;6134;59.284;18.022;2023-08-21T01:20:22;14.40;;;11.85;;
12141;SDS011;6134;59.284;18.022;2023-08-21T01:22:51;15.35;;;11.45;;
12141;SDS011;6134;59.284;18.022;2023-08-21T01:25:22;13.35;;;10.93;;
12141;SDS011;6134;59.284;18.022;2023-08-21T01:27:51;13.93;;;11.00;;
12141;SDS011;6134;59.284;18.022;2023-08-21T01:30:21;14.52;;;10.98;;
12141;SDS011;6134;59.284;18.022;2023-08-21T01:32:53;14.48;;;10.68;;
12141;SDS011;6134;59.284;18.022;2023-08-21T01:35:25;13.45;;;10.27;;
12141;SDS011;6134;59.284;18.022;2023-08-21T01:37:54;13.63;;;10.63;;
12141;SDS011;6134;59.284;18.022;2023-08-21T01:40:25;15.48;;;10.90;;
12141;SDS011;6134;59.284;18.022;2023-08-21T01:42:53;13.35;;;10.93;;
12141;SDS011;6134;59.284;18.022;2023-08-21T01:45:22;15.25;;;11.70;;
12141;SDS011;6134;59.284;18.022;2023-08-21T01:47:51;15.27;;;11.13;;
12141;SDS011;6134;59.284;18.022;2023-08-21T01:50:20;15.27;;;10.90;;
12141;SDS011;6134;59.284;18.022;2023-08-21T01:52:49;16.25;;;11.40;;
12141;SDS011;6134;59.284;18.022;2023-08-21T01:55:18;14.98;;;11.27;;
12141;SDS011;6134;59.284;18.022;2023-08-21T01:57:49;15.13;;;11.23;;
12141;SDS011;6134;59.284;18.022;2023-08-21T02:00:18;16.35;;;11.43;;
12141;SDS011;6134;59.284;18.022;2023-08-21T02:02:47;15.90;;;11.77;;
12141;SDS011;6134;59.284;18.022;2023-08-21T02:05:16;13.80;;;11.10;;
12141;SDS011;6134;59.284;18.022;2023-08-21T02:07:45;13.77;;;11.00;;
12141;SDS011;6134;59.284;18.022;2023-08-21T02:10:14;16.35;;;12.10;;
12141;SDS011;6134;59.284;18.022;2023-08-21T02:12:42;16.52;;;11.45;;
12141;SDS011;6134;59.284;18.022;2023-08-21T02:15:13;15.77;;;10.95;;
12141;SDS011;6134;59.284;18.022;2023-08-21T02:17:42;13.63;;;10.70;;
12141;SDS011;6134;59.284;18.022;2023-08-21T02:20:12;13.65;;;10.52;;
12141;SDS011;6134;59.284;18.022;2023-08-21T02:22:41;14.27;;;10.75;;
12141;SDS011;6134;59.284;18.022;2023-08-21T02:25:09;13.30;;;10.35;;
12141;SDS011;6134;59.284;18.022;2023-08-21T02:27:38;12.48;;;10.25;;
12141;SDS011;6134;59.284;18.022;2023-08-21T02:30:07;11.40;;;9.68;;
12141;SDS011;6134;59.284;18.022;2023-08-21T02:32:37;12.77;;;10.55;;
12141;SDS011;6134;59.284;18.022;2023-08-21T02:35:07;11.27;;;10.07;;
12141;SDS011;6134;59.284;18.022;2023-08-21T02:37:37;14.25;;;10.65;;
12141;SDS011;6134;59.284;18.022;2023-08-21T02:40:06;12.30;;;9.82;;
12141;SDS011;6134;59.284;18.022;2023-08-21T02:42:36;11.55;;;9.88;;
12141;SDS011;6134;59.284;18.022;2023-08-21T02:45:06;12.07;;;9.07;;
12141;SDS011;6134;59.284;18.022;2023-08-21T02:47:36;14.38;;;9.90;;
12141;SDS011;6134;59.284;18.022;2023-08-21T02:50:07;12.05;;;9.00;;
12141;SDS011;6134;59.284;18.022;2023-08-21T02:52:37;11.68;;;8.95;;
12141;SDS011;6134;59.284;18.022;2023-08-21T02:55:08;10.75;;;8.32;;
12141;SDS011;6134;59.284;18.022;2023-08-21T02:57:37;9.57;;;8.20;;
12141;SDS011;6134;59.284;18.022;2023-08-21T03:00:06;9.68;;;8.38;;
12141;SDS011;6134;59.284;18.022;2023-08-21T03:02:35;10.90;;;7.78;;
12141;SDS011;6134;59.284;18.022;2023-08-21T03:05:06;10.43;;;8.05;;
12141;SDS011;6134;59.284;18.022;2023-08-21T03:07:36;10.80;;;8.02;;
12141;SDS011;6134;59.284;18.022;2023-08-21T03:10:05;8.68;;;7.43;;
12141;SDS011;6134;59.284;18.022;2023-08-21T03:12:34;10.38;;;8.25;;
12141;SDS011;6134;59.284;18.022;2023-08-21T03:15:03;10.02;;;7.65;;
12141;SDS011;6134;59.284;18.022;2023-08-21T03:17:32;8.75;;;7.85;;
12141;SDS011;6134;59.284;18.022;2023-08-21T03:20:02;9.25;;;7.68;;
12141;SDS011;6134;59.284;18.022;2023-08-21T03:22:32;8.63;;;7.45;;
12141;SDS011;6134;59.284;18.022;2023-08-21T03:25:02;11.52;;;7.50;;
12141;SDS011;6134;59.284;18.022;2023-08-21T03:27:31;8.88;;;7.32;;
12141;SDS011;6134;59.284;18.022;2023-08-21T03:30:00;11.15;;;7.38;;
12141;SDS011;6134;59.284;18.022;2023-08-21T03:32:31;8.80;;;7.20;;
12141;SDS011;6134;59.284;18.022;2023-08-21T03:35:00;10.07;;;7.35;;
12141;SDS011;6134;59.284;18.022;2023-08-21T03:37:29;8.52;;;7.15;;
12141;SDS011;6134;59.284;18.022;2023-08-21T03:40:01;7.95;;;7.15;;
12141;SDS011;6134;59.284;18.022;2023-08-21T03:42:31;7.75;;;6.20;;
12141;SDS011;6134;59.284;18.022;2023-08-21T03:45:00;8.20;;;6.47;;
12141;SDS011;6134;59.284;18.022;2023-08-21T03:47:30;7.55;;;6.82;;
12141;SDS011;6134;59.284;18.022;2023-08-21T03:50:05;7.45;;;5.88;;
12141;SDS011;6134;59.284;18.022;2023-08-21T03:52:35;6.70;;;5.57;;
12141;SDS011;6134;59.284;18.022;2023-08-21T03:55:07;10.23;;;5.93;;
12141;SDS011;6134;59.284;18.022;2023-08-21T03:57:36;6.82;;;5.65;;
12141;SDS011;6134;59.284;18.022;2023-08-21T04:00:05;7.50;;;5.13;;
12141;SDS011;6134;59.284;18.022;2023-08-21T04:02:42;5.25;;;4.75;;
12141;SDS011;6134;59.284;18.022;2023-08-21T04:05:11;6.32;;;4.82;;
12141;SDS011;6134;59.284;18.022;2023-08-21T04:07:39;4.70;;;4.25;;
12141;SDS011;6134;59.284;18.022;2023-08-21T04:10:09;4.95;;;4.28;;
12141;SDS011;6134;59.284;18.022;2023-08-21T04:12:38;4.40;;;4.00;;
12141;SDS011;6134;59.284;18.022;2023-08-21T04:15:08;4.43;;;3.72;;
12141;SDS011;6134;59.284;18.022;2023-08-21T04:17:37;4.40;;;4.00;;
12141;SDS011;6134;59.284;18.022;2023-08-21T04:20:06;6.43;;;4.30;;
12141;SDS011;6134;59.284;18.022;2023-08-21T04:22:35;5.28;;;4.13;;
12141;SDS011;6134;59.284;18.022;2023-08-21T04:25:04;4.85;;;4.30;;
12141;SDS011;6134;59.284;18.022;2023-08-21T04:27:35;5.63;;;3.90;;
12141;SDS011;6134;59.284;18.022;2023-08-21T04:30:04;4.70;;;3.40;;
12141;SDS011;6134;59.284;18.022;2023-08-21T04:32:33;4.32;;;3.75;;
12141;SDS011;6134;59.284;18.022;2023-08-21T04:35:03;4.32;;;3.80;;
12141;SDS011;6134;59.284;18.022;2023-08-21T04:37:34;4.70;;;4.30;;
12141;SDS011;6134;59.284;18.022;2023-08-21T04:40:05;4.45;;;3.55;;
12141;SDS011;6134;59.284;18.022;2023-08-21T04:42:35;6.65;;;4.18;;
12141;SDS011;6134;59.284;18.022;2023-08-21T04:45:05;4.72;;;4.32;;
12141;SDS011;6134;59.284;18.022;2023-08-21T04:47:36;4.07;;;3.75;;
12141;SDS011;6134;59.284;18.022;2023-08-21T04:50:05;4.32;;;3.67;;
12141;SDS011;6134;59.284;18.022;2023-08-21T04:52:35;6.00;;;3.90;;
12141;SDS011;6134;59.284;18.022;2023-08-21T04:55:05;4.22;;;3.75;;
12141;SDS011;6134;59.284;18.022;2023-08-21T04:57:37;5.45;;;4.57;;
12141;SDS011;6134;59.284;18.022;2023-08-21T05:00:09;10.07;;;4.82;;
12141;SDS011;6134;59.284;18.022;2023-08-21T05:02:40;5.88;;;5.05;;
12141;SDS011;6134;59.284;18.022;2023-08-21T05:05:10;5.10;;;4.30;;
12141;SDS011;6134;59.284;18.022;2023-08-21T05:07:39;5.07;;;4.38;;
12141;SDS011;6134;59.284;18.022;2023-08-21T05:10:08;7.60;;;4.57;;
12141;SDS011;6134;59.284;18.022;2023-08-21T05:12:40;5.65;;;4.55;;
12141;SDS011;6134;59.284;18.022;2023-08-21T05:15:09;6.68;;;4.30;;
12141;SDS011;6134;59.284;18.022;2023-08-21T05:17:38;6.53;;;4.45;;
12141;SDS011;6134;59.284;18.022;2023-08-21T05:20:08;7.95;;;5.20;;
12141;SDS011;6134;59.284;18.022;2023-08-21T05:22:40;5.60;;;4.45;;
12141;SDS011;6134;59.284;18.022;2023-08-21T05:25:10;5.65;;;4.63;;
12141;SDS011;6134;59.284;18.022;2023-08-21T05:27:40;4.18;;;3.78;;
12141;SDS011;6134;59.284;18.022;2023-08-21T05:30:09;5.47;;;3.97;;
12141;SDS011;6134;59.284;18.022;2023-08-21T05:32:40;6.18;;;4.30;;
12141;SDS011;6134;59.284;18.022;2023-08-21T05:35:09;8.32;;;4.80;;
12141;SDS011;6134;59.284;18.022;2023-08-21T05:37:38;5.63;;;3.60;;
12141;SDS011;6134;59.284;18.022;2023-08-21T05:40:07;5.10;;;3.78;;
12141;SDS011;6134;59.284;18.022;2023-08-21T05:42:36;6.28;;;4.10;;
12141;SDS011;6134;59.284;18.022;2023-08-21T05:45:07;5.57;;;3.78;;
12141;SDS011;6134;59.284;18.022;2023-08-21T05:47:36;5.72;;;3.90;;
12141;SDS011;6134;59.284;18.022;2023-08-21T05:50:05;5.15;;;3.70;;
12141;SDS011;6134;59.284;18.022;2023-08-21T05:52:35;4.13;;;3.30;;
12141;SDS011;6134;59.284;18.022;2023-08-21T05:55:09;4.35;;;3.35;;
12141;SDS011;6134;59.284;18.022;2023-08-21T05:57:38;3.90;;;3.47;;
12141;SDS011;6134;59.284;18.022;2023-08-21T06:00:09;5.53;;;3.40;;
12141;SDS011;6134;59.284;18.022;2023-08-21T06:02:41;4.13;;;3.42;;
12141;SDS011;6134;59.284;18.022;2023-08-21T06:05:18;9.80;;;3.78;;
12141;SDS011;6134;59.284;18.022;2023-08-21T06:07:50;4.85;;;3.40;;
12141;SDS011;6134;59.284;18.022;2023-08-21T06:10:19;6.93;;;3.03;;
12141;SDS011;6134;59.284;18.022;2023-08-21T06:12:48;5.72;;;3.67;;
12141;SDS011;6134;59.284;18.022;2023-08-21T06:15:19;5.93;;;3.13;;
12141;SDS011;6134;59.284;18.022;2023-08-21T06:17:48;9.68;;;3.20;;
12141;SDS011;6134;59.284;18.022;2023-08-21T06:20:17;8.68;;;3.20;;
12141;SDS011;6134;59.284;18.022;2023-08-21T06:22:46;5.97;;;3.20;;
12141;SDS011;6134;59.284;18.022;2023-08-21T06:25:15;3.42;;;2.90;;
12141;SDS011;6134;59.284;18.022;2023-08-21T06:27:46;5.05;;;3.08;;
12141;SDS011;6134;59.284;18.022;2023-08-21T06:30:26;4.95;;;2.92;;
12141;SDS011;6134;59.284;18.022;2023-08-21T06:32:55;3.10;;;2.80;;
12141;SDS011;6134;59.284;18.022;2023-08-21T06:35:26;3.53;;;3.03;;
12141;SDS011;6134;59.284;18.022;2023-08-21T06:37:54;6.95;;;3.53;;
12141;SDS011;6134;59.284;18.022;2023-08-21T06:40:23;4.35;;;2.95;;
12141;SDS011;6134;59.284;18.022;2023-08-21T06:42:52;4.20;;;3.28;;
12141;SDS011;6134;59.284;18.022;2023-08-21T06:45:26;6.95;;;3.25;;
12141;SDS011;6134;59.284;18.022;2023-08-21T06:47:58;4.40;;;3.17;;
12141;SDS011;6134;59.284;18.022;2023-08-21T06:50:27;8.63;;;3.35;;
12141;SDS011;6134;59.284;18.022;2023-08-21T06:52:56;3.92;;;3.30;;
12141;SDS011;6134;59.284;18.022;2023-08-21T06:55:25;6.30;;;3.03;;
12141;SDS011;6134;59.284;18.022;2023-08-21T06:57:54;4.93;;;3.20;;
12141;SDS011;6134;59.284;18.022;2023-08-21T07:00:22;6.40;;;2.95;;
12141;SDS011;6134;59.284;18.022;2023-08-21T07:02:53;4.13;;;3.00;;
12141;SDS011;6134;59.284;18.022;2023-08-21T07:05:22;4.35;;;3.05;;
12141;SDS011;6134;59.284;18.022;2023-08-21T07:07:50;6.60;;;3.17;;
12141;SDS011;6134;59.284;18.022;2023-08-21T07:10:20;3.67;;;3.10;;
12141;SDS011;6134;59.284;18.022;2023-08-21T07:12:48;5.10;;;3.10;;
12141;SDS011;6134;59.284;18.022;2023-08-21T07:15:17;5.53;;;3.45;;
12141;SDS011;6134;59.284;18.022;2023-08-21T07:17:46;6.20;;;3.25;;
12141;SDS011;6134;59.284;18.022;2023-08-21T07:20:16;4.47;;;2.92;;
12141;SDS011;6134;59.284;18.022;2023-08-21T07:22:45;3.80;;;3.13;;
12141;SDS011;6134;59.284;18.022;2023-08-21T07:25:14;7.18;;;3.88;;
12141;SDS011;6134;59.284;18.022;2023-08-21T07:27:45;6.30;;;3.58;;
12141;SDS011;6134;59.284;18.022;2023-08-21T07:30:16;5.35;;;3.00;;
12141;SDS011;6134;59.284;18.022;2023-08-21T07:32:45;5.60;;;3.33;;
12141;SDS011;6134;59.284;18.022;2023-08-21T07:35:14;5.05;;;3.13;;
12141;SDS011;6134;59.284;18.022;2023-08-21T07:37:44;4.47;;;3.00;;
12141;SDS011;6134;59.284;18.022;2023-08-21T07:40:13;6.15;;;3.38;;
12141;SDS011;6134;59.284;18.022;2023-08-21T07:42:42;7.00;;;3.60;;
12141;SDS011;6134;59.284;18.022;2023-08-21T07:45:11;5.15;;;3.58;;
12141;SDS011;6134;59.284;18.022;2023-08-21T07:47:40;6.07;;;3.25;;
12141;SDS011;6134;59.284;18.022;2023-08-21T07:50:09;4.90;;;3.45;;
12141;SDS011;6134;59.284;18.022;2023-08-21T07:52:37;4.97;;;3.22;;
12141;SDS011;6134;59.284;18.022;2023-08-21T07:55:08;6.22;;;3.35;;
12141;SDS011;6134;59.284;18.022;2023-08-21T07:57:37;3.92;;;2.92;;
12141;SDS011;6134;59.284;18.022;2023-08-21T08:00:06;5.03;;;3.05;;
12141;SDS011;6134;59.284;18.022;2023-08-21T08:02:39;3.42;;;3.00;;
12141;SDS011;6134;59.284;18.022;2023-08-21T08:05:09;8.60;;;3.60;;
12141;SDS011;6134;59.284;18.022;2023-08-21T08:07:38;5.95;;;3.55;;
12141;SDS011;6134;59.284;18.022;2023-08-21T08:10:08;4.90;;;3.20;;
12141;SDS011;6134;59.284;18.022;2023-08-21T08:12:37;3.53;;;2.97;;
12141;SDS011;6134;59.284;18.022;2023-08-21T08:15:10;5.45;;;3.20;;
12141;SDS011;6134;59.284;18.022;2023-08-21T08:17:39;4.65;;;3.10;;
12141;SDS011;6134;59.284;18.022;2023-08-21T08:20:08;5.28;;;3.40;;
12141;SDS011;6134;59.284;18.022;2023-08-21T08:22:38;3.60;;;3.25;;
12141;SDS011;6134;59.284;18.022;2023-08-21T08:25:09;4.47;;;3.08;;
12141;SDS011;6134;59.284;18.022;2023-08-21T08:27:37;4.72;;;3.05;;
12141;SDS011;6134;59.284;18.022;2023-08-21T08:30:06;3.10;;;2.80;;
12141;SDS011;6134;59.284;18.022;2023-08-21T08:32:36;5.13;;;3.83;;
12141;SDS011;6134;59.284;18.022;2023-08-21T08:35:11;4.05;;;3.00;;
12141;SDS011;6134;59.284;18.022;2023-08-21T08:37:40;5.32;;;3.00;;
12141;SDS011;6134;59.284;18.022;2023-08-21T08:40:11;5.50;;;3.05;;
12141;SDS011;6134;59.284;18.022;2023-08-21T08:42:40;4.18;;;2.90;;
12141;SDS011;6134;59.284;18.022;2023-08-21T08:45:09;5.07;;;3.25;;
12141;SDS011;6134;59.284;18.022;2023-08-21T08:47:41;4.93;;;2.80;;
12141;SDS011;6134;59.284;18.022;2023-08-21T08:50:09;4.45;;;2.83;;
12141;SDS011;6134;59.284;18.022;2023-08-21T08:52:39;6.63;;;2.95;;
12141;SDS011;6134;59.284;18.022;2023-08-21T08:55:08;3.53;;;2.70;;
12141;SDS011;6134;59.284;18.022;2023-08-21T08:57:39;8.00;;;3.10;;
12141;SDS011;6134;59.284;18.022;2023-08-21T09:00:08;3.33;;;2.78;;
12141;SDS011;6134;59.284;18.022;2023-08-21T09:02:37;5.68;;;3.10;;
12141;SDS011;6134;59.284;18.022;2023-08-21T09:05:06;4.60;;;2.50;;
12141;SDS011;6134;59.284;18.022;2023-08-21T09:07:36;8.10;;;3.20;;
12141;SDS011;6134;59.284;18.022;2023-08-21T09:10:08;4.18;;;2.78;;
12141;SDS011;6134;59.284;18.022;2023-08-21T09:12:44;3.17;;;2.60;;
12141;SDS011;6134;59.284;18.022;2023-08-21T09:15:13;7.43;;;3.78;;
12141;SDS011;6134;59.284;18.022;2023-08-21T09:17:42;5.20;;;2.63;;
12141;SDS011;6134;59.284;18.022;2023-08-21T09:20:11;6.50;;;3.33;;
12141;SDS011;6134;59.284;18.022;2023-08-21T09:22:40;3.70;;;2.67;;
12141;SDS011;6134;59.284;18.022;2023-08-21T09:25:10;4.43;;;2.50;;
12141;SDS011;6134;59.284;18.022;2023-08-21T09:27:41;6.45;;;3.40;;
12141;SDS011;6134;59.284;18.022;2023-08-21T09:30:10;3.90;;;2.60;;
12141;SDS011;6134;59.284;18.022;2023-08-21T09:32:52;4.93;;;2.53;;
12141;SDS011;6134;59.284;18.022;2023-08-21T09:35:21;3.13;;;2.35;;
12141;SDS011;6134;59.284;18.022;2023-08-21T09:37:50;3.45;;;2.67;;
12141;SDS011;6134;59.284;18.022;2023-08-21T09:40:20;4.60;;;2.33;;
12141;SDS011;6134;59.284;18.022;2023-08-21T09:42:53;5.05;;;2.42;;
12141;SDS011;6134;59.284;18.022;2023-08-21T09:45:22;3.97;;;2.60;;
12141;SDS011;6134;59.284;18.022;2023-08-21T09:47:51;2.50;;;2.28;;
12141;SDS011;6134;59.284;18.022;2023-08-21T09:50:20;5.72;;;2.38;;
12141;SDS011;6134;59.284;18.022;2023-08-21T09:52:49;4.25;;;2.80;;
12141;SDS011;6134;59.284;18.022;2023-08-21T09:55:38;5.45;;;2.88;;
12141;SDS011;6134;59.284;18.022;2023-08-21T09:58:08;6.68;;;2.92;;
12141;SDS011;6134;59.284;18.022;2023-08-21T10:00:37;6.20;;;2.83;;
12141;SDS011;6134;59.284;18.022;2023-08-21T10:03:08;6.18;;;2.80;;
12141;SDS011;6134;59.284;18.022;2023-08-21T10:05:38;4.15;;;2.80;;
12141;SDS011;6134;59.284;18.022;2023-08-21T10:08:07;2.45;;;2.25;;
12141;SDS011;6134;59.284;18.022;2023-08-21T10:10:36;8.23;;;2.38;;
12141;SDS011;6134;59.284;18.022;2023-08-21T10:13:05;4.60;;;2.35;;
12141;SDS011;6134;59.284;18.022;2023-08-21T10:15:37;3.50;;;2.30;;
12141;SDS011;6134;59.284;18.022;2023-08-21T10:18:19;3.53;;;2.58;;
12141;SDS011;6134;59.284;18.022;2023-08-21T10:20:48;5.13;;;2.65;;
12141;SDS011;6134;59.284;18.022;2023-08-21T10:23:24;5.15;;;2.50;;
12141;SDS011;6134;59.284;18.022;2023-08-21T10:25:56;3.83;;;2.53;;
12141;SDS011;6134;59.284;18.022;2023-08-21T10:28:40;3.45;;;2.40;;
12141;SDS011;6134;59.284;18.022;2023-08-21T10:31:27;4.20;;;2.50;;
12141;SDS011;6134;59.284;18.022;2023-08-21T10:33:57;4.72;;;2.58;;
12141;SDS011;6134;59.284;18.022;2023-08-21T10:36:39;2.60;;;2.30;;
12141;SDS011;6134;59.284;18.022;2023-08-21T10:39:17;3.80;;;2.55;;
12141;SDS011;6134;59.284;18.022;2023-08-21T10:41:52;2.92;;;2.10;;
12141;SDS011;6134;59.284;18.022;2023-08-21T10:44:38;3.80;;;2.25;;
12141;SDS011;6134;59.284;18.022;2023-08-21T10:47:19;4.20;;;1.90;;
12141;SDS011;6134;59.284;18.022;2023-08-21T10:49:48;3.45;;;1.88;;
12141;SDS011;6134;59.284;18.022;2023-08-21T10:52:19;3.78;;;1.98;;
12141;SDS011;6134;59.284;18.022;2023-08-21T10:54:49;5.20;;;2.28;;
12141;SDS011;6134;59.284;18.022;2023-08-21T10:57:18;2.58;;;1.70;;
12141;SDS011;6134;59.284;18.022;2023-08-21T10:59:51;3.38;;;2.15;;
12141;SDS011;6134;59.284;18.022;2023-08-21T11:02:21;3.60;;;1.90;;
12141;SDS011;6134;59.284;18.022;2023-08-21T11:04:50;5.45;;;2.08;;
12141;SDS011;6134;59.284;18.022;2023-08-21T11:07:19;3.88;;;2.13;;
12141;SDS011;6134;59.284;18.022;2023-08-21T11:09:49;5.35;;;2.50;;
12141;SDS011;6134;59.284;18.022;2023-08-21T11:12:18;4.00;;;2.00;;
12141;SDS011;6134;59.284;18.022;2023-08-21T11:14:47;2.78;;;2.13;;
12141;SDS011;6134;59.284;18.022;2023-08-21T11:17:16;5.30;;;2.40;;
12141;SDS011;6134;59.284;18.022;2023-08-21T11:19:47;4.75;;;2.08;;
12141;SDS011;6134;59.284;18.022;2023-08-21T11:22:16;4.22;;;2.08;;
12141;SDS011;6134;59.284;18.022;2023-08-21T11:24:46;4.10;;;2.00;;
12141;SDS011;6134;59.284;18.022;2023-08-21T11:27:15;2.08;;;1.65;;
12141;SDS011;6134;59.284;18.022;2023-08-21T11:29:45;4.03;;;2.42;;
12141;SDS011;6134;59.284;18.022;2023-08-21T11:32:14;5.18;;;2.08;;
12141;SDS011;6134;59.284;18.022;2023-08-21T11:34:48;5.43;;;1.95;;
12141;SDS011;6134;59.284;18.022;2023-08-21T11:37:18;4.32;;;1.95;;
12141;SDS011;6134;59.284;18.022;2023-08-21T11:39:47;3.90;;;1.70;;
12141;SDS011;6134;59.284;18.022;2023-08-21T11:42:16;1.95;;;1.75;;
12141;SDS011;6134;59.284;18.022;2023-08-21T11:44:46;3.35;;;1.85;;
12141;SDS011;6134;59.284;18.022;2023-08-21T11:47:15;4.15;;;1.77;;
12141;SDS011;6134;59.284;18.022;2023-08-21T11:49:44;2.38;;;1.77;;
12141;SDS011;6134;59.284;18.022;2023-08-21T11:52:19;3.00;;;1.80;;
12141;SDS011;6134;59.284;18.022;2023-08-21T11:54:49;3.45;;;2.00;;
12141;SDS011;6134;59.284;18.022;2023-08-21T11:57:18;3.42;;;1.73;;
12141;SDS011;6134;59.284;18.022;2023-08-21T11:59:50;4.32;;;1.80;;
12141;SDS011;6134;59.284;18.022;2023-08-21T12:02:21;3.78;;;1.65;;
12141;SDS011;6134;59.284;18.022;2023-08-21T12:04:51;2.10;;;1.63;;
12141;SDS011;6134;59.284;18.022;2023-08-21T12:07:23;2.83;;;1.67;;
12141;SDS011;6134;59.284;18.022;2023-08-21T12:09:51;3.20;;;1.95;;
12141;SDS011;6134;59.284;18.022;2023-08-21T12:12:20;2.42;;;1.73;;
12141;SDS011;6134;59.284;18.022;2023-08-21T12:14:49;4.00;;;1.60;;
12141;SDS011;6134;59.284;18.022;2023-08-21T12:17:18;4.80;;;1.60;;
12141;SDS011;6134;59.284;18.022;2023-08-21T12:19:47;2.78;;;1.70;;
12141;SDS011;6134;59.284;18.022;2023-08-21T12:22:16;1.80;;;1.60;;
12141;SDS011;6134;59.284;18.022;2023-08-21T12:24:46;3.20;;;1.50;;
12141;SDS011;6134;59.284;18.022;2023-08-21T12:27:15;3.83;;;1.70;;
12141;SDS011;6134;59.284;18.022;2023-08-21T12:29:44;3.10;;;1.40;;
12141;SDS011;6134;59.284;18.022;2023-08-21T12:32:14;3.70;;;1.50;;
12141;SDS011;6134;59.284;18.022;2023-08-21T12:34:43;4.38;;;1.75;;
12141;SDS011;6134;59.284;18.022;2023-08-21T12:37:12;4.85;;;1.70;;
12141;SDS011;6134;59.284;18.022;2023-08-21T12:39:43;2.97;;;1.70;;
12141;SDS011;6134;59.284;18.022;2023-08-21T12:42:13;4.35;;;1.50;;
12141;SDS011;6134;59.284;18.022;2023-08-21T12:44:42;2.08;;;1.42;;
12141;SDS011;6134;59.284;18.022;2023-08-21T12:47:11;3.05;;;1.50;;
12141;SDS011;6134;59.284;18.022;2023-08-21T12:49:40;2.35;;;1.50;;
12141;SDS011;6134;59.284;18.022;2023-08-21T12:52:09;3.20;;;1.73;;
12141;SDS011;6134;59.284;18.022;2023-08-21T12:54:39;3.05;;;1.83;;
12141;SDS011;6134;59.284;18.022;2023-08-21T12:57:08;5.97;;;1.65;;
12141;SDS011;6134;59.284;18.022;2023-08-21T12:59:39;4.57;;;1.90;;
12141;SDS011;6134;59.284;18.022;2023-08-21T13:02:08;4.05;;;1.70;;
12141;SDS011;6134;59.284;18.022;2023-08-21T13:04:37;3.03;;;1.60;;
12141;SDS011;6134;59.284;18.022;2023-08-21T13:07:06;2.22;;;1.70;;
12141;SDS011;6134;59.284;18.022;2023-08-21T13:09:34;4.50;;;1.73;;
12141;SDS011;6134;59.284;18.022;2023-08-21T13:12:03;3.05;;;1.50;;
12141;SDS011;6134;59.284;18.022;2023-08-21T13:14:32;3.00;;;1.50;;
12141;SDS011;6134;59.284;18.022;2023-08-21T13:17:03;3.78;;;1.55;;
12141;SDS011;6134;59.284;18.022;2023-08-21T13:19:32;3.05;;;1.20;;
12141;SDS011;6134;59.284;18.022;2023-08-21T13:22:00;2.08;;;1.33;;
12141;SDS011;6134;59.284;18.022;2023-08-21T13:24:29;3.13;;;1.58;;
12141;SDS011;6134;59.284;18.022;2023-08-21T13:26:58;1.40;;;1.30;;
12141;SDS011;6134;59.284;18.022;2023-08-21T13:29:27;6.28;;;1.60;;
12141;SDS011;6134;59.284;18.022;2023-08-21T13:31:56;3.50;;;1.73;;
12141;SDS011;6134;59.284;18.022;2023-08-21T13:34:26;3.22;;;1.90;;
12141;SDS011;6134;59.284;18.022;2023-08-21T13:36:55;3.17;;;1.80;;
12141;SDS011;6134;59.284;18.022;2023-08-21T13:39:24;2.13;;;1.50;;
12141;SDS011;6134;59.284;18.022;2023-08-21T13:41:53;2.90;;;1.60;;
12141;SDS011;6134;59.284;18.022;2023-08-21T13:44:22;3.72;;;1.50;;
12141;SDS011;6134;59.284;18.022;2023-08-21T13:46:51;3.58;;;1.73;;
12141;SDS011;6134;59.284;18.022;2023-08-21T13:49:20;4.43;;;1.48;;
12141;SDS011;6134;59.284;18.022;2023-08-21T13:51:50;4.32;;;2.00;;
12141;SDS011;6134;59.284;18.022;2023-08-21T13:54:19;3.90;;;1.42;;
12141;SDS011;6134;59.284;18.022;2023-08-21T13:56:48;2.65;;;1.50;;
12141;SDS011;6134;59.284;18.022;2023-08-21T13:59:18;2.83;;;1.60;;
12141;SDS011;6134;59.284;18.022;2023-08-21T14:01:46;3.78;;;1.70;;
12141;SDS011;6134;59.284;18.022;2023-08-21T14:04:15;4.38;;;1.55;;
12141;SDS011;6134;59.284;18.022;2023-08-21T14:06:44;1.88;;;1.50;;
12141;SDS011;6134;59.284;18.022;2023-08-21T14:09:15;2.20;;;1.60;;
12141;SDS011;6134;59.284;18.022;2023-08-21T14:11:43;2.53;;;1.60;;
12141;SDS011;6134;59.284;18.022;2023-08-21T14:14:12;4.65;;;1.70;;
12141;SDS011;6134;59.284;18.022;2023-08-21T14:16:41;3.15;;;1.20;;
12141;SDS011;6134;59.284;18.022;2023-08-21T14:19:10;4.25;;;1.60;;
12141;SDS011;6134;59.284;18.022;2023-08-21T14:21:39;1.88;;;1.45;;
12141;SDS011;6134;59.284;18.022;2023-08-21T14:24:08;2.50;;;1.45;;
12141;SDS011;6134;59.284;18.022;2023-08-21T14:26:38;3.38;;;1.67;;
12141;SDS011;6134;59.284;18.022;2023-08-21T14:29:07;5.13;;;1.80;;
12141;SDS011;6134;59.284;18.022;2023-08-21T14:31:35;3.55;;;1.70;;
12141;SDS011;6134;59.284;18.022;2023-08-21T14:34:04;2.50;;;1.55;;
12141;SDS011;6134;59.284;18.022;2023-08-21T14:36:33;4.65;;;1.50;;
12141;SDS011;6134;59.284;18.022;2023-08-21T14:39:02;2.13;;;1.30;;
12141;SDS011;6134;59.284;18.022;2023-08-21T14:41:32;2.13;;;1.25;;
12141;SDS011;6134;59.284;18.022;2023-08-21T14:44:03;2.75;;;1.20;;
12141;SDS011;6134;59.284;18.022;2023-08-21T14:46:32;1.92;;;1.10;;
12141;SDS011;6134;59.284;18.022;2023-08-21T14:49:05;0.98;;;0.93;;
12141;SDS011;6134;59.284;18.022;2023-08-21T14:51:34;2.35;;;1.10;;
12141;SDS011;6134;59.284;18.022;2023-08-21T14:54:04;3.10;;;1.30;;
12141;SDS011;6134;59.284;18.022;2023-08-21T14:56:33;2.08;;;1.25;;
12141;SDS011;6134;59.284;18.022;2023-08-21T14:59:03;2.08;;;1.25;;